Airfield :
LOGIN :

Register | Disclaimer

   EN    FR    IT 

 










Legend :    VFR   Marginal VFR   IFR   Intensive IFR   Very Intensive IFR
Visi :
Ceiling :
>= 8 km
>= 3000ft
5 to 8 km
1000 to 3000 ft
1500m to 5 km
500 to 1000 ft
800 to 1500m
200 to 500 ft
< 800m
< 200 ft
Symbols :   Thunderstorms  Fog  Heavy snow  Heavy precipitations  Wind > 20 kt
SIGMETs :     Misc.  Thunderstorms  Icing  Turbulence  Mountain Waves  Volcanic Ashes







- Airport Elevation : 392 ft
- IATA code : CDG
- Download approach charts


LFPG - Paris-Aeroport Charles De Gaulle

CURRENT METAR :
  • 211530Z 15010KT 110V180 CAVOK 27/12 Q1011 NOSIG

EXPIRED METARs :
  • 211500Z 13014KT CAVOK 27/12 Q1011 NOSIG
  • 211430Z 13013KT 090V150 CAVOK 27/12 Q1011 NOSIG
  • 211400Z 15012KT 110V180 CAVOK 27/12 Q1012 NOSIG
  • 211330Z 14012KT 100V170 CAVOK 27/11 Q1012 NOSIG
  • 211300Z 15012KT 110V180 CAVOK 27/11 Q1012 NOSIG

TAF AMD TAF LFPG
Valid from the 21 at 12:00 until the 22 at 18:00 UTC


211155Z 2112/2218 13010G20KT CAVOK TX28/2115Z TN17/2218Z
BECMG 2209/2211 19010G20KT
TEMPO 2211/2215 25015G30KT 3000 RA SCT012CB BKN020
PROB40
TEMPO 2216/2218 SCT040TCU
ATIS : +33 1 48 62 10 92
No reported NOTAMs for that airfield.



MET'MAP, your aeronautical weather chart ! - Copyright ORBIFLY December 2007 - Disclaimer

ORBIFLY MET'MAP TEAM :

Programming & Development : Alexandra Zaïnal
Concept & Development : Baudouin d'Aumeries
Co-Development & Prog : Marc-Olivier Méhu
Technical & hardware support : Manuel Goepfert

Contact : metmap@orbifly.com




SOURCES & CREDITS :

   NOAA